Time;durP1;ratioP1;P1;durP2;ratioP2;P2;SDS_P1;SDS_P2;PMS_P1;PMS_P2;Temp;Humidity;BMP_temperature;BMP_pressure;BME280_temperature;BME280_humidity;BME280_pressure;Samples;Min_cycle;Max_cycle;Signal;HPM_P1;HPM_P2
2022/03/30 00:00:36;;;;;;;;;;;;;;;17.94;38.90;100171.63;4998382;28;881;-64
2022/03/30 00:03:01;;;;;;;;;;;;;;;17.84;38.45;100165.44;4997935;28;794;-63
2022/03/30 00:05:27;;;;;;;;;;;;;;;17.71;38.24;100164.25;4998399;28;770;-62
2022/03/30 00:07:53;;;;;;;;;;;;;;;17.58;38.14;100168.53;4998294;28;854;-63
2022/03/30 00:10:18;;;;;;;;;;;;;;;17.60;38.50;100160.84;5008802;28;1915;-63
2022/03/30 00:12:44;;;;;;;;;;;;;;;17.78;40.24;100162.78;5017332;28;748;-63
2022/03/30 00:15:09;;;;;;;;;;;;;;;18.36;39.94;100154.50;5017214;28;872;-62
2022/03/30 00:17:35;;;;;;;;;;;;;;;18.71;38.97;100150.31;4998680;28;810;-62
2022/03/30 00:20:01;;;;;;;;;;;;;;;18.94;38.54;100150.47;5016823;28;902;-64
2022/03/30 00:22:26;;;;;;;;;;;;;;;18.99;38.18;100164.16;5003082;28;1492;-64
2022/03/30 00:24:52;;;;;;;;;;;;;;;18.90;38.39;100152.19;5007221;28;805;-64
2022/03/30 00:27:17;;;;;;;;;;;;;;;18.54;38.72;100150.09;5016856;28;838;-64
2022/03/30 00:29:44;;;;;;;;;;;;;;;18.15;38.90;100154.03;5016673;28;1910;-63
2022/03/30 00:32:10;;;;;;;;;;;;;;;18.15;38.31;100159.53;5016106;28;843;-64
2022/03/30 00:34:36;;;;;;;;;;;;;;;17.97;38.23;100147.41;5016392;28;805;-64
2022/03/30 00:37:01;;;;;;;;;;;;;;;17.81;37.71;100152.28;5016382;28;835;-64
2022/03/30 00:39:27;;;;;;;;;;;;;;;17.65;37.76;100146.19;5009552;28;1018;-63
2022/03/30 00:41:52;;;;;;;;;;;;;;;17.76;37.69;100156.72;5016197;28;822;-62
2022/03/30 00:44:18;;;;;;;;;;;;;;;17.78;38.57;100153.69;5016788;28;786;-63
2022/03/30 00:46:43;;;;;;;;;;;;;;;17.73;39.58;100154.59;5012439;28;878;-63
2022/03/30 00:49:09;;;;;;;;;;;;;;;17.87;40.21;100151.09;5016094;28;1969;-63
2022/03/30 00:51:35;;;;;;;;;;;;;;;18.02;40.69;100150.91;5016280;28;817;-62
2022/03/30 00:54:00;;;;;;;;;;;;;;;18.10;40.50;100136.47;5011426;28;841;-62
2022/03/30 00:56:27;;;;;;;;;;;;;;;18.56;39.80;100136.81;4997260;28;870;-63
2022/03/30 00:58:52;;;;;;;;;;;;;;;18.86;38.95;100143.72;4990935;28;812;-64
2022/03/30 01:01:19;;;;;;;;;;;;;;;19.04;38.54;100139.25;4997012;28;773;-63
2022/03/30 01:03:44;;;;;;;;;;;;;;;19.08;38.36;100143.03;4980108;28;810;-63
2022/03/30 01:06:10;;;;;;;;;;;;;;;18.47;39.36;100137.50;4997003;28;980;-63
2022/03/30 01:08:35;;;;;;;;;;;;;;;17.65;40.73;100137.94;4996863;28;1897;-65
2022/03/30 01:11:00;;;;;;;;;;;;;;;17.91;39.92;100146.69;4997130;28;982;-65
2022/03/30 01:13:26;;;;;;;;;;;;;;;17.96;39.58;100141.06;5012568;28;758;-63
2022/03/30 01:15:51;;;;;;;;;;;;;;;17.77;39.76;100141.88;5016054;28;755;-63
2022/03/30 01:18:17;;;;;;;;;;;;;;;17.77;39.60;100138.31;4998340;28;825;-64
2022/03/30 01:20:49;;;;;;;;;;;;;;;17.73;39.83;100129.84;5015391;28;825;-63
2022/03/30 01:23:15;;;;;;;;;;;;;;;17.78;40.69;100124.28;5016191;28;825;-64
2022/03/30 01:25:40;;;;;;;;;;;;;;;18.00;40.64;100131.13;4998271;28;869;-62
2022/03/30 01:28:06;;;;;;;;;;;;;;;18.52;39.58;100124.78;4996703;28;834;-62
2022/03/30 01:33:15;;;;;;;;;;;;;;;19.02;38.25;100122.19;4996764;28;799;-63
2022/03/30 01:35:41;;;;;;;;;;;;;;;19.14;38.09;100119.75;4996877;28;807;-64
2022/03/30 01:38:06;;;;;;;;;;;;;;;18.93;38.36;100127.63;4996600;28;1546;-66
2022/03/30 01:40:32;;;;;;;;;;;;;;;17.99;39.96;100126.72;4996083;28;794;-65
2022/03/30 01:42:57;;;;;;;;;;;;;;;17.53;39.85;100124.63;4996805;28;795;-65
2022/03/30 01:45:23;;;;;;;;;;;;;;;17.76;38.59;100129.22;4996526;28;818;-65
2022/03/30 01:47:49;;;;;;;;;;;;;;;17.60;38.73;100123.16;4996519;28;754;-64
2022/03/30 01:50:15;;;;;;;;;;;;;;;17.81;39.07;100138.53;4996122;28;1930;-63
2022/03/30 01:52:40;;;;;;;;;;;;;;;18.33;40.36;100125.66;4996646;28;1473;-65
2022/03/30 01:55:06;;;;;;;;;;;;;;;18.81;39.14;100122.56;4996264;28;763;-64
2022/03/30 01:57:31;;;;;;;;;;;;;;;19.20;38.31;100125.19;4996397;28;858;-65
2022/03/30 01:59:57;;;;;;;;;;;;;;;19.19;38.31;100129.06;4996539;28;811;-64
2022/03/30 02:02:22;;;;;;;;;;;;;;;18.60;39.22;100121.31;4996976;28;877;-66
2022/03/30 02:04:48;;;;;;;;;;;;;;;18.31;39.90;100136.13;5011033;28;897;-64
2022/03/30 02:07:13;;;;;;;;;;;;;;;17.15;42.63;100125.38;5015371;28;834;-65
2022/03/30 02:09:38;;;;;;;;;;;;;;;17.81;40.81;100128.38;5005544;28;1985;-65
2022/03/30 02:12:04;;;;;;;;;;;;;;;18.02;40.58;100139.91;4996496;28;726;-65
2022/03/30 02:14:30;;;;;;;;;;;;;;;18.01;40.70;100146.50;4996637;28;907;-63
2022/03/30 02:16:55;;;;;;;;;;;;;;;18.22;40.02;100137.94;4995631;28;881;-64
2022/03/30 02:19:21;;;;;;;;;;;;;;;18.13;40.12;100144.13;5000312;28;816;-65
2022/03/30 02:21:46;;;;;;;;;;;;;;;18.14;40.28;100147.69;5000107;28;1074;-64
2022/03/30 02:24:11;;;;;;;;;;;;;;;18.24;39.90;100146.69;4999640;28;861;-65
2022/03/30 02:26:37;;;;;;;;;;;;;;;18.16;39.92;100139.13;5019274;28;848;-64
2022/03/30 02:29:02;;;;;;;;;;;;;;;18.11;40.09;100148.28;5016502;28;1976;-63
2022/03/30 02:31:28;;;;;;;;;;;;;;;18.02;40.18;100134.41;5018641;28;781;-64
2022/03/30 02:33:53;;;;;;;;;;;;;;;18.08;40.07;100133.19;5018617;28;824;-64
2022/03/30 02:36:19;;;;;;;;;;;;;;;18.12;40.06;100128.72;5019121;28;797;-64
2022/03/30 02:38:44;;;;;;;;;;;;;;;18.24;40.02;100135.69;5015711;28;1194;-63
2022/03/30 02:41:10;;;;;;;;;;;;;;;18.16;39.94;100139.97;5013750;28;785;-65
2022/03/30 02:43:35;;;;;;;;;;;;;;;18.23;39.80;100142.31;5016825;28;857;-64
2022/03/30 02:46:01;;;;;;;;;;;;;;;18.33;39.59;100150.41;5018672;28;743;-65
2022/03/30 02:48:29;;;;;;;;;;;;;;;18.21;39.75;100139.88;5018220;28;1910;-65
2022/03/30 02:50:55;;;;;;;;;;;;;;;18.17;39.92;100140.78;5018732;28;758;-62
2022/03/30 02:53:21;;;;;;;;;;;;;;;18.30;39.47;100134.50;5018357;28;851;-63
2022/03/30 02:55:46;;;;;;;;;;;;;;;18.29;39.83;100144.69;5000331;28;885;-63
2022/03/30 02:58:12;;;;;;;;;;;;;;;18.30;39.57;100145.53;4999807;28;790;-64
2022/03/30 03:00:37;;;;;;;;;;;;;;;18.26;39.81;100155.50;4999427;28;1059;-64
2022/03/30 03:03:03;;;;;;;;;;;;;;;18.28;39.57;100158.75;4999786;28;793;-63
2022/03/30 03:05:32;;;;;;;;;;;;;;;18.31;39.63;100158.13;4999424;28;986;-64
2022/03/30 03:07:59;;;;;;;;;;;;;;;18.29;39.45;100146.63;4999251;28;795;-62
2022/03/30 03:10:25;;;;;;;;;;;;;;;18.20;39.71;100156.66;4999092;28;1977;-61
2022/03/30 03:12:51;;;;;;;;;;;;;;;18.28;39.61;100158.75;4999910;28;783;-64
2022/03/30 03:15:17;;;;;;;;;;;;;;;18.30;39.57;100162.03;4999499;28;758;-64
2022/03/30 03:17:42;;;;;;;;;;;;;;;18.32;39.83;100158.97;4998974;28;869;-64
2022/03/30 03:20:08;;;;;;;;;;;;;;;18.34;39.47;100160.31;4999053;28;766;-64
2022/03/30 03:22:33;;;;;;;;;;;;;;;18.27;39.64;100162.59;4998806;28;954;-64
2022/03/30 03:24:59;;;;;;;;;;;;;;;18.19;39.99;100163.28;5005567;28;818;-61
2022/03/30 03:27:24;;;;;;;;;;;;;;;18.29;39.67;100165.91;5017787;28;918;-61
2022/03/30 03:29:50;;;;;;;;;;;;;;;18.26;39.62;100167.31;5017486;28;1968;-61
2022/03/30 03:32:15;;;;;;;;;;;;;;;18.34;39.48;100174.09;5013782;28;732;-61
2022/03/30 03:34:40;;;;;;;;;;;;;;;18.26;39.74;100175.56;4999119;28;775;-61
2022/03/30 03:37:06;;;;;;;;;;;;;;;18.23;39.56;100175.34;4999170;28;754;-62
2022/03/30 03:39:31;;;;;;;;;;;;;;;18.14;40.04;100175.19;5003508;28;1254;-61
2022/03/30 03:41:57;;;;;;;;;;;;;;;18.28;39.73;100175.25;5016290;28;950;-63
2022/03/30 03:44:22;;;;;;;;;;;;;;;18.27;39.71;100179.13;4998908;28;876;-60
2022/03/30 03:46:49;;;;;;;;;;;;;;;18.26;39.54;100172.00;5015469;28;1510;-71
2022/03/30 03:49:14;;;;;;;;;;;;;;;18.20;39.85;100173.19;5017213;28;1906;-67
2022/03/30 03:51:40;;;;;;;;;;;;;;;18.06;40.18;100182.22;5017022;28;906;-69
2022/03/30 03:54:05;;;;;;;;;;;;;;;18.18;39.83;100186.44;5015471;28;837;-65
2022/03/30 03:56:31;;;;;;;;;;;;;;;18.13;40.12;100188.16;5017814;28;811;-64
2022/03/30 03:58:56;;;;;;;;;;;;;;;18.14;39.92;100186.22;5013087;28;919;-63
2022/03/30 04:01:21;;;;;;;;;;;;;;;18.20;39.94;100179.53;5017160;28;827;-63
2022/03/30 04:03:47;;;;;;;;;;;;;;;18.20;39.97;100185.03;5016931;28;841;-60
2022/03/30 04:06:12;;;;;;;;;;;;;;;18.23;39.66;100200.09;5017257;28;771;-63
2022/03/30 04:08:38;;;;;;;;;;;;;;;18.17;40.00;100195.81;5015219;28;1906;-64
2022/03/30 04:11:03;;;;;;;;;;;;;;;18.23;39.84;100198.19;5011847;28;1055;-61
2022/03/30 04:13:29;;;;;;;;;;;;;;;18.19;39.66;100188.06;5016624;28;830;-63
2022/03/30 04:15:54;;;;;;;;;;;;;;;18.26;39.60;100194.81;5016726;28;846;-60
2022/03/30 04:18:21;;;;;;;;;;;;;;;18.27;39.94;100212.16;5017132;28;907;-62
2022/03/30 04:20:46;;;;;;;;;;;;;;;18.26;39.67;100196.78;5016897;28;795;-61
2022/03/30 04:23:12;;;;;;;;;;;;;;;18.29;39.87;100212.69;5012190;28;789;-60
2022/03/30 04:25:37;;;;;;;;;;;;;;;18.26;39.85;100202.28;4997938;28;980;-60
2022/03/30 04:28:03;;;;;;;;;;;;;;;18.24;39.67;100202.59;4991719;28;858;-60
2022/03/30 04:30:28;;;;;;;;;;;;;;;18.36;39.61;100198.56;4998229;28;2004;-63
2022/03/30 04:32:53;;;;;;;;;;;;;;;18.22;39.67;100202.03;4997695;28;783;-64
2022/03/30 04:35:24;;;;;;;;;;;;;;;18.28;39.53;100187.06;4997841;28;775;-62
2022/03/30 04:37:54;;;;;;;;;;;;;;;18.30;39.72;100200.56;5015586;28;1158;-64
2022/03/30 04:40:19;;;;;;;;;;;;;;;18.20;39.79;100208.97;5000778;28;830;-59
2022/03/30 04:42:45;;;;;;;;;;;;;;;18.32;39.48;100194.75;4997765;28;795;-60
2022/03/30 04:45:10;;;;;;;;;;;;;;;18.21;39.85;100203.16;4993909;28;988;-60
2022/03/30 04:47:36;;;;;;;;;;;;;;;18.33;39.35;100205.47;4996281;28;1078;-61
2022/03/30 04:50:02;;;;;;;;;;;;;;;18.41;39.60;100193.78;4996340;28;1977;-62
2022/03/30 04:52:27;;;;;;;;;;;;;;;18.46;39.45;100201.94;4994129;28;1266;-60
2022/03/30 04:54:53;;;;;;;;;;;;;;;18.38;39.34;100210.06;4993521;28;827;-61
2022/03/30 04:57:18;;;;;;;;;;;;;;;18.44;39.38;100198.69;5016281;28;1012;-58
2022/03/30 04:59:44;;;;;;;;;;;;;;;18.47;39.22;100206.34;5007677;28;787;-63
2022/03/30 05:02:09;;;;;;;;;;;;;;;18.53;39.04;100198.81;5006421;28;808;-61
2022/03/30 05:04:35;;;;;;;;;;;;;;;18.70;38.84;100198.22;4996794;28;1260;-63
2022/03/30 05:07:00;;;;;;;;;;;;;;;18.71;38.93;100193.56;5013071;28;773;-61
2022/03/30 05:09:25;;;;;;;;;;;;;;;18.66;38.83;100199.16;5008121;28;1906;-62
2022/03/30 05:11:51;;;;;;;;;;;;;;;18.61;38.94;100200.06;4997070;28;734;-64
2022/03/30 05:14:17;;;;;;;;;;;;;;;18.34;39.62;100190.59;4998632;28;829;-65
2022/03/30 05:16:42;;;;;;;;;;;;;;;18.45;39.24;100203.06;5009650;28;998;-61
2022/03/30 05:19:09;;;;;;;;;;;;;;;18.56;39.13;100200.94;5016323;28;785;-59
2022/03/30 05:21:35;;;;;;;;;;;;;;;18.46;39.85;100199.19;5015763;28;862;-59
2022/03/30 05:24:00;;;;;;;;;;;;;;;18.37;40.10;100198.25;5011199;28;971;-56
2022/03/30 05:26:26;;;;;;;;;;;;;;;18.35;39.87;100203.22;4997093;28;751;-58
2022/03/30 05:28:51;;;;;;;;;;;;;;;18.36;39.18;100207.63;5009980;28;1975;-58
2022/03/30 05:31:17;;;;;;;;;;;;;;;18.05;38.66;100208.06;5015667;28;816;-59
2022/03/30 05:33:43;;;;;;;;;;;;;;;18.11;37.67;100209.63;5016083;28;797;-57
2022/03/30 05:36:08;;;;;;;;;;;;;;;17.94;37.52;100209.34;5015744;28;894;-58
2022/03/30 05:38:34;;;;;;;;;;;;;;;17.77;37.33;100207.88;5013933;28;1011;-58
2022/03/30 05:41:00;;;;;;;;;;;;;;;17.81;36.78;100218.28;5000272;28;985;-59
2022/03/30 05:43:25;;;;;;;;;;;;;;;17.74;37.46;100218.63;4996554;28;810;-58
2022/03/30 05:45:51;;;;;;;;;;;;;;;17.81;38.01;100221.03;4996315;28;838;-60
2022/03/30 05:48:17;;;;;;;;;;;;;;;17.95;39.19;100222.78;4996531;28;862;-59
2022/03/30 05:50:42;;;;;;;;;;;;;;;17.99;40.30;100220.25;4996550;28;1993;-59
2022/03/30 05:53:08;;;;;;;;;;;;;;;18.15;40.50;100222.81;5000467;28;921;-58
2022/03/30 05:55:33;;;;;;;;;;;;;;;18.16;41.32;100229.94;5008524;28;813;-59
2022/03/30 05:57:59;;;;;;;;;;;;;;;18.36;41.12;100209.56;4997472;28;1064;-59
2022/03/30 06:00:24;;;;;;;;;;;;;;;18.44;41.20;100220.69;5011954;28;1121;-62
2022/03/30 06:02:50;;;;;;;;;;;;;;;18.47;40.98;100209.09;4994636;28;1284;-61
2022/03/30 06:05:15;;;;;;;;;;;;;;;18.52;41.07;100208.16;4995774;28;858;-63
2022/03/30 06:07:41;;;;;;;;;;;;;;;18.48;41.47;100207.13;4999081;28;858;-60
2022/03/30 06:10:07;;;;;;;;;;;;;;;18.60;41.05;100214.94;5010660;28;1958;-63
2022/03/30 06:12:32;;;;;;;;;;;;;;;18.61;40.96;100211.06;5000001;28;831;-60
2022/03/30 06:14:58;;;;;;;;;;;;;;;18.61;41.10;100216.59;4996223;28;858;-60
2022/03/30 06:17:23;;;;;;;;;;;;;;;18.63;41.08;100208.81;4996258;28;827;-61
2022/03/30 06:19:49;;;;;;;;;;;;;;;18.68;40.66;100216.19;5010674;28;812;-60
2022/03/30 06:22:15;;;;;;;;;;;;;;;18.66;40.53;100210.97;4996767;28;1058;-61
2022/03/30 06:24:40;;;;;;;;;;;;;;;18.12;40.91;100210.47;5012512;28;837;-60
2022/03/30 06:27:06;;;;;;;;;;;;;;;18.06;39.77;100201.47;5015242;28;819;-60
2022/03/30 06:29:32;;;;;;;;;;;;;;;18.03;39.42;100207.53;5015004;28;1906;-60
2022/03/30 06:31:57;;;;;;;;;;;;;;;17.89;39.48;100220.38;5000074;28;909;-59
2022/03/30 06:34:25;;;;;;;;;;;;;;;17.88;39.10;100226.97;4996818;28;1057;-59
2022/03/30 06:36:50;;;;;;;;;;;;;;;18.01;38.35;100226.28;4991481;28;1165;-59
2022/03/30 06:39:16;;;;;;;;;;;;;;;17.93;38.47;100226.94;4989076;28;1086;-59
2022/03/30 06:41:42;;;;;;;;;;;;;;;17.95;38.47;100227.50;4993064;28;1172;-59
2022/03/30 06:44:08;;;;;;;;;;;;;;;18.00;38.12;100221.91;4996106;28;1106;-64
2022/03/30 06:46:38;;;;;;;;;;;;;;;17.88;38.11;100226.97;4996622;28;819;-60
2022/03/30 06:49:04;;;;;;;;;;;;;;;17.93;37.45;100235.19;4996445;28;1976;-59
2022/03/30 06:51:29;;;;;;;;;;;;;;;17.73;37.81;100234.31;4998471;28;956;-62
2022/03/30 06:53:55;;;;;;;;;;;;;;;17.79;38.82;100219.41;4995820;28;1061;-62
2022/03/30 06:56:20;;;;;;;;;;;;;;;18.13;41.44;100225.84;4994705;28;1034;-63
2022/03/30 06:58:46;;;;;;;;;;;;;;;18.47;43.27;100227.53;4996157;28;1255;-60
2022/03/30 07:01:14;;;;;;;;;;;;;;;18.76;43.85;100230.09;5003807;28;1173;-61
2022/03/30 07:03:40;;;;;;;;;;;;;;;19.05;43.30;100237.31;5014776;28;809;-66
2022/03/30 07:06:05;;;;;;;;;;;;;;;19.26;42.56;100232.25;5000877;28;1062;-62
2022/03/30 07:11:14;;;;;;;;;;;;;;;18.51;42.57;100212.06;4999851;28;818;-60
2022/03/30 07:13:40;;;;;;;;;;;;;;;17.93;41.89;100225.00;5000331;28;734;-63
2022/03/30 07:16:05;;;;;;;;;;;;;;;18.01;40.40;100220.78;5000055;28;766;-61
2022/03/30 07:18:31;;;;;;;;;;;;;;;17.99;39.17;100228.50;4998408;28;1130;-61
2022/03/30 07:20:56;;;;;;;;;;;;;;;18.02;39.25;100225.19;4998870;28;759;-60
2022/03/30 07:23:23;;;;;;;;;;;;;;;18.06;39.72;100231.72;4998911;28;1307;-67
2022/03/30 07:25:48;;;;;;;;;;;;;;;18.22;40.21;100215.00;4999537;28;977;-62
2022/03/30 07:28:16;;;;;;;;;;;;;;;18.21;41.53;100216.91;4998781;28;1323;-65
2022/03/30 07:30:43;;;;;;;;;;;;;;;18.20;42.08;100222.72;4997459;28;1906;-66
2022/03/30 07:33:08;;;;;;;;;;;;;;;18.40;42.03;100222.41;5001630;28;1038;-62
2022/03/30 07:35:34;;;;;;;;;;;;;;;18.43;42.29;100218.25;4998542;28;1304;-62
2022/03/30 07:38:00;;;;;;;;;;;;;;;18.33;42.77;100226.66;4999147;28;1126;-63
2022/03/30 07:40:25;;;;;;;;;;;;;;;18.40;42.59;100214.16;4999148;28;823;-66
2022/03/30 07:42:51;;;;;;;;;;;;;;;18.48;42.83;100218.16;5001663;28;814;-60
2022/03/30 07:45:16;;;;;;;;;;;;;;;18.44;42.53;100219.88;5007728;28;955;-61
2022/03/30 07:47:42;;;;;;;;;;;;;;;18.48;41.63;100212.63;5006100;28;1110;-57
2022/03/30 07:50:08;;;;;;;;;;;;;;;17.70;42.26;100215.69;4998278;28;1937;-55
2022/03/30 07:52:33;;;;;;;;;;;;;;;17.70;40.92;100199.19;4998999;28;886;-56
2022/03/30 07:54:59;;;;;;;;;;;;;;;17.78;39.60;100203.19;4998943;28;850;-55
2022/03/30 07:57:27;;;;;;;;;;;;;;;17.78;39.31;100206.78;4998598;28;801;-55
2022/03/30 07:59:56;;;;;;;;;;;;;;;17.83;38.95;100207.81;5008056;28;857;-55
2022/03/30 08:02:22;;;;;;;;;;;;;;;17.62;38.70;100219.06;5012006;28;1696;-55
2022/03/30 08:04:47;;;;;;;;;;;;;;;17.56;38.45;100215.56;4996779;28;1050;-55
2022/03/30 08:07:14;;;;;;;;;;;;;;;17.62;38.71;100219.06;4997614;28;1260;-56
2022/03/30 08:09:40;;;;;;;;;;;;;;;17.67;40.21;100220.94;5004808;28;1906;-56
2022/03/30 08:12:05;;;;;;;;;;;;;;;17.83;40.80;100216.88;5004826;28;986;-56
2022/03/30 08:14:31;;;;;;;;;;;;;;;17.92;41.25;100212.41;5017116;28;786;-56
2022/03/30 08:16:56;;;;;;;;;;;;;;;18.08;41.50;100223.97;4991093;28;1081;-55
2022/03/30 08:19:22;;;;;;;;;;;;;;;18.11;41.35;100206.06;4998260;28;838;-55
2022/03/30 08:24:31;;;;;;;;;;;;;;;18.11;41.98;100208.81;4997415;28;1487;-55
2022/03/30 08:26:57;;;;;;;;;;;;;;;18.39;41.24;100206.19;5004738;28;1467;-55
2022/03/30 08:29:23;;;;;;;;;;;;;;;18.28;41.46;100208.28;4998331;28;1898;-55
2022/03/30 08:31:48;;;;;;;;;;;;;;;18.35;40.82;100205.16;4997898;28;1288;-57
2022/03/30 08:34:14;;;;;;;;;;;;;;;18.27;40.41;100201.13;5007647;28;1425;-56
2022/03/30 08:36:40;;;;;;;;;;;;;;;17.93;40.42;100203.00;4987716;28;921;-56
2022/03/30 08:39:11;;;;;;;;;;;;;;;18.01;39.31;100195.22;4998887;28;1023;-55
2022/03/30 08:41:43;;;;;;;;;;;;;;;17.86;38.92;100208.03;4996045;28;1512;-55
2022/03/30 08:44:09;;;;;;;;;;;;;;;17.66;38.54;100198.13;4993480;28;1079;-55
2022/03/30 08:46:34;;;;;;;;;;;;;;;17.56;38.18;100199.06;4996093;28;1050;-52
2022/03/30 08:49:00;;;;;;;;;;;;;;;17.40;38.08;100192.97;4980191;28;1899;-52
2022/03/30 08:51:25;;;;;;;;;;;;;;;17.60;38.72;100193.81;4995173;28;1221;-54
2022/03/30 08:53:51;;;;;;;;;;;;;;;17.84;40.97;100187.44;4992793;28;1191;-55
2022/03/30 08:56:17;;;;;;;;;;;;;;;18.32;42.50;100181.00;4997475;28;857;-56
2022/03/30 08:58:42;;;;;;;;;;;;;;;18.63;42.22;100186.78;4997209;28;1010;-55
2022/03/30 09:01:09;;;;;;;;;;;;;;;19.00;41.36;100182.31;4996840;28;822;-56
2022/03/30 09:03:34;;;;;;;;;;;;;;;19.14;41.01;100168.56;4987604;28;1035;-57
2022/03/30 09:06:00;;;;;;;;;;;;;;;18.80;41.30;100176.03;4995932;28;838;-57
2022/03/30 09:08:27;;;;;;;;;;;;;;;18.09;41.93;100173.34;4996607;28;835;-56
2022/03/30 09:10:53;;;;;;;;;;;;;;;17.84;41.75;100171.78;4996251;28;1977;-56
2022/03/30 09:13:19;;;;;;;;;;;;;;;17.95;40.10;100172.47;4996470;28;1106;-55
2022/03/30 09:15:45;;;;;;;;;;;;;;;17.86;39.52;100172.28;5005702;28;1110;-54
2022/03/30 09:18:10;;;;;;;;;;;;;;;17.85;38.91;100167.06;5006932;28;1585;-55
2022/03/30 09:20:36;;;;;;;;;;;;;;;17.73;38.66;100162.03;4995829;28;1029;-55
2022/03/30 09:23:02;;;;;;;;;;;;;;;17.65;38.63;100162.69;4994587;28;766;-54
2022/03/30 09:25:28;;;;;;;;;;;;;;;17.84;40.49;100162.69;4997164;28;959;-55
2022/03/30 09:27:54;;;;;;;;;;;;;;;18.20;42.51;100159.44;5005349;28;878;-54
2022/03/30 09:30:21;;;;;;;;;;;;;;;18.67;42.30;100143.78;5007942;28;1906;-55
2022/03/30 09:32:47;;;;;;;;;;;;;;;19.00;41.45;100154.78;4998233;28;855;-55
2022/03/30 09:35:19;;;;;;;;;;;;;;;19.23;40.45;100154.88;4998120;28;1680;-55
2022/03/30 09:37:45;;;;;;;;;;;;;;;18.91;41.00;100149.13;4995454;28;1830;-58
2022/03/30 09:40:11;;;;;;;;;;;;;;;18.39;42.47;100149.19;4976947;28;1299;-55
2022/03/30 09:42:36;;;;;;;;;;;;;;;17.83;43.24;100139.06;4993028;28;1220;-57
2022/03/30 09:45:02;;;;;;;;;;;;;;;17.64;42.87;100137.09;4994549;28;1248;-55
2022/03/30 09:47:35;;;;;;;;;;;;;;;18.08;41.89;100126.88;4997962;28;1169;-55
2022/03/30 09:50:00;;;;;;;;;;;;;;;18.07;41.85;100131.56;5015950;28;1944;-56
2022/03/30 09:52:29;;;;;;;;;;;;;;;18.17;42.15;100129.75;5015345;28;778;-57
2022/03/30 09:54:58;;;;;;;;;;;;;;;18.19;42.00;100122.00;5001933;28;946;-55
2022/03/30 09:57:25;;;;;;;;;;;;;;;18.38;41.85;100113.72;5014551;28;766;-55
2022/03/30 10:00:03;;;;;;;;;;;;;;;18.32;42.01;100113.00;5014321;28;988;-55
2022/03/30 10:02:34;;;;;;;;;;;;;;;18.19;41.95;100111.84;5015229;28;671;-55
2022/03/30 10:05:00;;;;;;;;;;;;;;;18.21;41.64;100108.78;5015654;28;1210;-55
2022/03/30 10:07:26;;;;;;;;;;;;;;;18.36;41.45;100100.25;5007944;28;886;-55
2022/03/30 10:09:52;;;;;;;;;;;;;;;18.39;41.28;100094.16;4995144;28;1967;-56
2022/03/30 10:12:17;;;;;;;;;;;;;;;18.29;41.64;100099.84;4996444;28;862;-55
2022/03/30 10:14:44;;;;;;;;;;;;;;;18.22;41.63;100099.41;4996880;28;754;-54
2022/03/30 10:17:09;;;;;;;;;;;;;;;18.32;41.81;100099.22;4996966;28;810;-56
2022/03/30 10:19:35;;;;;;;;;;;;;;;18.23;41.92;100095.53;4993894;28;1149;-54
2022/03/30 10:22:09;;;;;;;;;;;;;;;18.29;41.45;100091.59;4996704;28;1224;-55
2022/03/30 10:24:48;;;;;;;;;;;;;;;18.45;41.12;100084.69;4999715;28;827;-54
2022/03/30 10:27:19;;;;;;;;;;;;;;;18.44;40.93;100085.81;4997095;28;874;-55
2022/03/30 10:29:49;;;;;;;;;;;;;;;18.41;41.29;100096.59;5015263;28;1993;-55
2022/03/30 10:32:14;;;;;;;;;;;;;;;18.08;42.41;100083.66;5013306;28;1036;-54
2022/03/30 10:34:56;;;;;;;;;;;;;;;18.29;42.18;100075.06;5014883;28;796;-54
2022/03/30 10:37:26;;;;;;;;;;;;;;;18.26;42.39;100061.94;5015175;28;1168;-55
2022/03/30 10:39:57;;;;;;;;;;;;;;;18.32;42.73;100060.69;5006747;28;813;-54
2022/03/30 10:42:23;;;;;;;;;;;;;;;18.36;42.34;100056.22;5000172;28;862;-54
2022/03/30 10:44:49;;;;;;;;;;;;;;;18.44;42.25;100061.03;4999771;28;850;-54
2022/03/30 10:47:17;;;;;;;;;;;;;;;18.41;42.39;100058.91;4995735;28;1117;-54
2022/03/30 10:49:54;;;;;;;;;;;;;;;18.40;42.56;100051.75;4990777;28;1910;-56
2022/03/30 10:52:34;;;;;;;;;;;;;;;18.49;42.41;100053.81;4997966;28;936;-55
2022/03/30 10:55:14;;;;;;;;;;;;;;;18.43;42.47;100062.16;5010847;28;1244;-56
2022/03/30 10:57:47;;;;;;;;;;;;;;;18.42;42.70;100054.19;5015829;28;1084;-55
2022/03/30 11:00:22;;;;;;;;;;;;;;;18.47;42.26;100051.34;4993242;28;794;-57
2022/03/30 11:02:48;;;;;;;;;;;;;;;18.36;42.39;100044.41;5001181;28;890;-57
2022/03/30 11:05:14;;;;;;;;;;;;;;;18.45;42.09;100039.81;5018259;28;786;-55
2022/03/30 11:07:39;;;;;;;;;;;;;;;18.40;42.30;100040.75;4996734;28;1019;-55
2022/03/30 11:10:14;;;;;;;;;;;;;;;18.46;42.08;100036.75;4997233;28;1973;-56
2022/03/30 11:12:56;;;;;;;;;;;;;;;18.46;41.98;100045.00;4998417;28;1203;-55
2022/03/30 11:15:22;;;;;;;;;;;;;;;18.42;42.02;100045.94;4994697;28;885;-55
2022/03/30 11:17:47;;;;;;;;;;;;;;;18.49;41.87;100037.28;5003524;28;818;-56
2022/03/30 11:20:14;;;;;;;;;;;;;;;18.44;41.76;100039.00;4994782;28;1121;-55
2022/03/30 11:22:44;;;;;;;;;;;;;;;18.45;42.00;100029.66;4998631;28;854;-55
2022/03/30 11:25:09;;;;;;;;;;;;;;;18.37;42.23;100024.84;4999275;28;843;-55
2022/03/30 11:27:35;;;;;;;;;;;;;;;18.42;41.93;100034.94;5001462;28;795;-57
2022/03/30 11:30:03;;;;;;;;;;;;;;;18.43;41.89;100029.13;4988754;28;2023;-56
2022/03/30 11:32:30;;;;;;;;;;;;;;;18.43;41.84;100012.59;4996138;28;1217;-57
2022/03/30 11:34:59;;;;;;;;;;;;;;;18.47;41.52;100010.88;4995192;28;1126;-56
2022/03/30 11:37:28;;;;;;;;;;;;;;;18.47;41.44;100008.13;5007314;28;1091;-57
2022/03/30 11:40:04;;;;;;;;;;;;;;;18.40;41.61;100007.72;5002013;28;1066;-56
2022/03/30 11:42:29;;;;;;;;;;;;;;;18.33;41.79;100012.81;4996290;28;1011;-56
2022/03/30 11:45:13;;;;;;;;;;;;;;;18.38;41.75;100004.44;4980894;28;1332;-56
2022/03/30 11:47:40;;;;;;;;;;;;;;;18.46;41.27;99989.16;4983411;28;1216;-57
2022/03/30 11:50:05;;;;;;;;;;;;;;;18.40;41.71;99993.13;4991106;28;1906;-58
2022/03/30 11:52:31;;;;;;;;;;;;;;;18.43;41.65;99995.28;4998823;28;786;-55
2022/03/30 11:54:56;;;;;;;;;;;;;;;18.25;42.30;99978.53;5003295;28;890;-55
2022/03/30 11:57:22;;;;;;;;;;;;;;;18.41;41.60;99990.09;5017617;28;758;-53
2022/03/30 11:59:57;;;;;;;;;;;;;;;18.46;41.73;99995.47;5017384;28;814;-55
2022/03/30 12:02:24;;;;;;;;;;;;;;;18.31;41.81;99987.50;4996638;28;1035;-56
2022/03/30 12:04:49;;;;;;;;;;;;;;;18.40;41.76;99995.91;4993892;28;1018;-55
2022/03/30 12:07:15;;;;;;;;;;;;;;;18.37;41.58;99983.56;4998426;28;1243;-56
2022/03/30 12:09:44;;;;;;;;;;;;;;;18.47;41.34;99986.09;4997470;28;1938;-56
2022/03/30 12:12:11;;;;;;;;;;;;;;;18.39;41.59;99989.56;4997296;28;1252;-56
2022/03/30 12:14:36;;;;;;;;;;;;;;;18.38;41.45;99987.91;4991829;28;1027;-55
2022/03/30 12:17:04;;;;;;;;;;;;;;;18.36;41.56;99984.66;4996285;28;1397;-53
2022/03/30 12:19:29;;;;;;;;;;;;;;;18.32;41.59;99982.84;4996375;28;1427;-55
2022/03/30 12:21:55;;;;;;;;;;;;;;;18.30;42.01;99975.69;4997023;28;1197;-56
2022/03/30 12:24:22;;;;;;;;;;;;;;;18.41;41.43;99979.06;4985553;28;1337;-55
2022/03/30 12:26:51;;;;;;;;;;;;;;;18.54;41.34;99984.88;4980643;28;1219;-56
2022/03/30 12:29:17;;;;;;;;;;;;;;;18.36;41.59;99984.66;5006516;28;1906;-56
2022/03/30 12:31:44;;;;;;;;;;;;;;;18.46;41.32;99981.69;4996515;28;960;-55
2022/03/30 12:34:10;;;;;;;;;;;;;;;18.28;41.74;99983.41;4994260;28;1380;-55
2022/03/30 12:36:39;;;;;;;;;;;;;;;18.32;41.41;99983.63;4996775;28;1493;-55
2022/03/30 12:39:13;;;;;;;;;;;;;;;18.36;41.54;99978.34;4999838;28;978;-54
2022/03/30 12:41:39;;;;;;;;;;;;;;;18.30;41.80;99988.66;4998953;28;858;-55
2022/03/30 12:44:05;;;;;;;;;;;;;;;18.33;41.57;99996.28;4993533;28;1385;-55
2022/03/30 12:46:31;;;;;;;;;;;;;;;18.30;41.54;99985.91;4997626;28;866;-55
2022/03/30 12:49:06;;;;;;;;;;;;;;;18.29;41.76;99973.25;4996110;28;1906;-55
2022/03/30 12:51:33;;;;;;;;;;;;;;;18.38;41.57;99979.66;4994254;28;1094;-55
2022/03/30 12:53:59;;;;;;;;;;;;;;;18.50;41.28;99994.88;4995369;28;874;-55
2022/03/30 12:56:24;;;;;;;;;;;;;;;18.47;41.06;99986.09;4996678;28;850;-54